This is the latest recevied weather packets stored in our database for station/object EA3CH. If no packets are shown the sender has not sent any weather packets the latest 10 day(s).
| Time | Temp. | Humidity | Pressure | Rain* | Wind** | Luminosity | Snow |
|---|---|---|---|---|---|---|---|
| 1787500804 | 25.56° C | 83% | 1017.8 hPa | 0 mm | - | 0 W/m² | - |
| 1787499904 | 26.11° C | 82% | 1017.9 hPa | 0 mm | - | 0 W/m² | - |
| 1787499005 | 27.22° C | 77% | 1017.6 hPa | 0 mm | - | 0 W/m² | - |
| 1787498103 | 27.78° C | 74% | 1017.7 hPa | 0 mm | - | 0 W/m² | - |
| 1787497206 | 28.33° C | 64% | 1017.3 hPa | 0 mm | - | 0 W/m² | - |
| 1787497204 | 28.33° C | 71% | 1017.5 hPa | 0 mm | - | 0 W/m² | - |
| 1787496306 | 28.89° C | 61% | 1017.3 hPa | 0 mm | - | 0 W/m² | - |
| 1787496304 | 29.44° C | 68% | 1017.4 hPa | 0 mm | - | 0 W/m² | - |
| 1787495403 | 30.56° C | 65% | 1017.4 hPa | 0 mm | - | 0 W/m² | - |
| 1787494506 | 31.11° C | 54% | 1017.3 hPa | 0 mm | - | 0 W/m² | - |
| 1787494504 | 30.56° C | 63% | 1017.5 hPa | 0 mm | - | 0 W/m² | - |
| 1787493603 | 30° C | 61% | 1017.5 hPa | 0 mm | - | 0 W/m² | - |
| 1787492703 | 29.44° C | 66% | 1017.8 hPa | 0 mm | - | 0 W/m² | - |
| 1787491804 | 30° C | 58% | 1017.9 hPa | 0 mm | - | 0 W/m² | - |
| 1787490904 | 30° C | 60% | 1018 hPa | 0 mm | - | 0 W/m² | - |
| 1787490004 | 30.56° C | 58% | 1018.2 hPa | 0 mm | - | 0 W/m² | - |
| 1787489107 | 31.11° C | 48% | 1018.2 hPa | 0 mm | - | 0 W/m² | - |
| 1787489103 | 30.56° C | 56% | 1018.3 hPa | 0 mm | - | 0 W/m² | - |
| 1787488205 | 30.56° C | 59% | 1018.4 hPa | 0 mm | - | 0 W/m² | - |
| 1787487303 | 30° C | 61% | 1018.5 hPa | 0 mm | - | 0 W/m² | - |
| 1787486406 | 30° C | 52% | 1018.4 hPa | 0 mm | - | 0 W/m² | - |
| 1787486404 | 30° C | 60% | 1018.5 hPa | 0 mm | - | 0 W/m² | - |
| 1787485507 | 29.44° C | 53% | 1018.4 hPa | 0 mm | - | 0 W/m² | - |
| 1787485504 | 29.44° C | 61% | 1018.6 hPa | 0 mm | - | 0 W/m² | - |
| 1787484607 | 29.44° C | 52% | 1018.6 hPa | 0 mm | - | 0 W/m² | - |
* Rain latest hour (hover to see other rain measurements)
** Current wind speed in m/s (hover to see current wind gust speed)